PORTS® Data Listing: 8720218 Mayport (Bar Pilots Dock), FL

CO-OPS RAW PORTS DATA

************************      PRELIMINARY DATA      ************************** 

     THIS RAW DATA HAS NOT BEEN SUBJECT TO THE NATIONAL OCEAN SERVICE'S        
     QUALITY CONTROL OR QUALITY ASSURANCE PROCEDURES AND DOES NOT MEET         
     THE CRITERIA AND STANDARDS OF OFFICIAL NATIONAL OCEAN SERVICE             
     DATA.  IT IS RELEASED FOR LIMITED PUBLIC USE AS PRELIMINARY DATA TO       
     BE USED ONLY WITH APPROPRIATE CAUTION.                                    

************************      PRELIMINARY DATA      ************************** 


       CD   -   Calendar date
       T    -   Time
       TZ   -   Timezone
       PW   -   Predicted water level (feet above MLLW)
       OW   -   Observed water level (feet above MLLW)
       WS   -   Wind speed (knots)
       WD   -   Wind direction (degrees true)
       WG   -   Wind gust (knots)
       AT   -   Air temperature (degrees farenheit)
       WT   -   Water temperature (degrees farenheit)
       AP   -   Air pressure (millibars)
       SA   -   Salinty (PSU - Practical Salinity Units)
       SG   -   Specific gravity
       RH   -   Relative humidity
       AG   -   Air gap (feet)
       VI   -   Visibility (nautical miles)

       ** NOTE **
       A variable that has its data fields filled with "9"s, indicates that
       data was not collected for that sample period.
       **********


STATION NAME: Mayport Bar Pilots Dock (8720218)
****************************************************************************************************
    CD       T    TZ    PW     OW    WS   WD   WG    AT    WT    AP    SA    SG     RH    AG   VI
****************************************************************************************************
2019/12/05 11:06 EST    1.99   2.32    7  358   10  58.8  61.7 1020.9  6.3  1.005 -99.9 -99.99 -9.99
2019/12/05 11:12 EST    2.06   2.38    5   14    8  58.8  61.7 1020.9  6.3  1.005 -99.9 -99.99 -9.99
2019/12/05 11:18 EST    2.13   2.45    5   32    7  59.0  61.9 1020.9  6.3  1.005 -99.9 -99.99 -9.99
2019/12/05 11:24 EST    2.21   2.53    4   18    6  59.4  61.9 1020.9  6.3  1.005 -99.9 -99.99 -9.99
2019/12/05 11:30 EST    2.28   2.61    6   10    8  59.5  62.1 1020.7  6.3  1.005 -99.9 -99.99 -9.99
2019/12/05 11:36 EST    2.36   2.70    5   15    7  59.7  62.1 1020.7  6.3  1.005 -99.9 -99.99 -9.99
2019/12/05 11:42 EST    2.43   2.79    5   32    8  59.9  62.1 1020.6  6.3  1.005 -99.9 -99.99 -9.99
2019/12/05 11:48 EST    2.51   2.89    5   13   10  60.1  61.9 1020.6  6.3  1.005 -99.9 -99.99 -9.99
2019/12/05 11:54 EST    2.58   2.98    8   24   10  60.3  61.9 1020.5  6.3  1.005 -99.9 -99.99 -9.99
2019/12/05 12:00 EST    2.66   3.05    9   15   12  60.3  61.9 1020.4  6.2  1.005 -99.9 -99.99 -9.99
2019/12/05 12:06 EST    2.73   3.13    7   13   11  60.6  62.1 1020.2  6.2  1.004 -99.9 -99.99 -9.99
2019/12/05 12:12 EST    2.80   3.21    9   17   12  60.8  62.1 1020.2  6.2  1.004 -99.9 -99.99 -9.99
2019/12/05 12:18 EST    2.88   3.30    7   15   10  60.8  62.1 1020.0  6.2  1.004 -99.9 -99.99 -9.99
2019/12/05 12:24 EST    2.95   3.41    6    9   11  61.2  62.2 1020.1  6.1  1.004 -99.9 -99.99 -9.99
2019/12/05 12:30 EST    3.02   3.48    6    7   11  61.2  62.2 1020.0  6.1  1.004 -99.9 -99.99 -9.99
2019/12/05 12:36 EST    3.09   3.52    6   30   10  61.3  62.2 1020.0  6.1  1.004 -99.9 -99.99 -9.99
2019/12/05 12:42 EST    3.16   3.59    8    3   11  61.3  62.2 1020.0  6.1  1.004 -99.9 -99.99 -9.99
2019/12/05 12:48 EST    3.22   3.68    7   12   11  61.5  62.2 1019.9  6.1  1.004 -99.9 -99.99 -9.99
2019/12/05 12:54 EST    3.29   3.74    8   15   11  61.2  62.2 1019.9  6.1  1.004 -99.9 -99.99 -9.99
2019/12/05 13:00 EST    3.35   3.80    8   25   11  61.3  62.2 1019.9  6.1  1.004 -99.9 -99.99 -9.99
2019/12/05 13:06 EST    3.42   3.85   10   48   14  61.0  62.4 1019.8  6.1  1.004 -99.9 -99.99 -9.99
2019/12/05 13:12 EST    3.48   3.90   11   44   13  60.6  62.2 1019.8  6.1  1.004 -99.9 -99.99 -9.99
2019/12/05 13:18 EST    3.54   3.99    9   36   13  61.0  62.4 1019.8  6.1  1.004 -99.9 -99.99 -9.99
2019/12/05 13:24 EST    3.59   4.05   11   44   13  60.3  62.4 1019.9  6.1  1.004 -99.9 -99.99 -9.99
2019/12/05 13:30 EST    3.65   4.10   10   46   12  60.3  62.6 1019.8  6.1  1.004 -99.9 -99.99 -9.99
2019/12/05 13:36 EST    3.70   4.15   11   48   13  60.3  62.4 1019.9  6.1  1.004 -99.9 -99.99 -9.99
2019/12/05 13:42 EST    3.75   4.19   10   40   13  60.6  62.6 1019.9  6.1  1.004 -99.9 -99.99 -9.99
2019/12/05 13:48 EST    3.80   4.26   10   40   12  60.6  62.6 1019.9  6.1  1.004 -99.9 -99.99 -9.99
2019/12/05 13:54 EST    3.85   4.30   11   46   12  60.4  62.6 1019.9  6.1  1.004 -99.9 -99.99 -9.99
2019/12/05 14:00 EST    3.89   4.33   11   47   13  60.4  62.8 1019.9  6.2  1.004 -99.9 -99.99 -9.99
2019/12/05 14:06 EST    3.93   4.38   10   48   13  60.4  63.1 1019.9  6.3  1.004 -99.9 -99.99 -9.99
2019/12/05 14:12 EST    3.97   4.44   10   45   11  60.1  63.5 1019.9  6.6  1.005 -99.9 -99.99 -9.99
2019/12/05 14:18 EST    4.01   4.47   10   46   12  60.1  63.9 1019.8  6.9  1.005 -99.9 -99.99 -9.99
2019/12/05 14:24 EST    4.04   4.47   11   47   13  59.9  64.0 1019.9  7.3  1.005 -99.9 -99.99 -9.99
2019/12/05 14:30 EST    4.07   4.50   10   43   12  60.1  64.2 1019.9  7.3  1.005 -99.9 -99.99 -9.99
2019/12/05 14:36 EST    4.10   4.54   10   46   11  59.7  64.0 1019.9  7.5  1.005 -99.9 -99.99 -9.99
2019/12/05 14:42 EST    4.12   4.55   11   46   12  59.7  64.0 1019.9  7.5  1.005 -99.9 -99.99 -9.99
2019/12/05 14:48 EST    4.14   4.55   10   49   13  59.7  64.2 1019.9  7.6  1.005 -99.9 -99.99 -9.99
2019/12/05 14:54 EST    4.16   4.56   10   52   12  59.7  64.4 1019.9  7.8  1.005 -99.9 -99.99 -9.99
2019/12/05 15:00 EST    4.17   4.58   11   46   12  59.9  64.6 1019.9  8.0  1.006 -99.9 -99.99 -9.99
2019/12/05 15:06 EST    4.19   4.59   11   51   13  59.7  64.8 1019.9  8.1  1.006 -99.9 -99.99 -9.99
2019/12/05 15:12 EST    4.19   4.57   11   50   12  59.7  64.9 1019.9  8.3  1.006 -99.9 -99.99 -9.99
2019/12/05 15:18 EST    4.20   4.55   10   50   12  59.9  64.9 1019.9  8.4  1.006 -99.9 -99.99 -9.99
2019/12/05 15:24 EST    4.20   4.53   10   43   12  59.9  64.8 1020.1  8.5  1.006 -99.9 -99.99 -9.99
2019/12/05 15:30 EST    4.20   4.55   10   44   11  59.7  64.8 1020.1  8.5  1.006 -99.9 -99.99 -9.99
2019/12/05 15:36 EST    4.19   4.55    9   56   11  59.7  64.8 1020.1  8.6  1.006 -99.9 -99.99 -9.99
2019/12/05 15:42 EST    4.18   4.54    9   52   10  59.7  64.6 1020.2  8.6  1.006 -99.9 -99.99 -9.99
2019/12/05 15:48 EST    4.17   4.52    9   51   10  59.5  64.8 1020.3  8.6  1.006 -99.9 -99.99 -9.99
2019/12/05 15:54 EST    4.15   4.50    8   54    9  59.7  64.8 1020.3  8.6  1.006 -99.9 -99.99 -9.99
2019/12/05 16:00 EST    4.13   4.50    8   67    9  59.5  64.8 1020.4  8.7  1.006 -99.9 -99.99 -9.99
2019/12/05 16:06 EST    4.10   4.49    8   53    9  59.5  64.8 1020.4  8.7  1.006 -99.9 -99.99 -9.99
2019/12/05 16:12 EST    4.07   4.48    8   57    9  59.5  64.8 1020.5  8.7  1.006 -99.9 -99.99 -9.99
2019/12/05 16:18 EST    4.04   4.42    7   59    9  59.5  64.8 1020.6  8.8  1.006 -99.9 -99.99 -9.99
2019/12/05 16:24 EST    4.00   4.38    8   54    9  59.5  64.8 1020.7  8.8  1.006 -99.9 -99.99 -9.99
2019/12/05 16:30 EST    3.95   4.36    7   58    9  59.4  64.8 1020.6  8.8  1.006 -99.9 -99.99 -9.99
2019/12/05 16:36 EST    3.90   4.31    6   58    9  59.7  64.8 1020.6  8.9  1.006 -99.9 -99.99 -9.99
2019/12/05 16:42 EST    3.85   4.25    7   55    9  59.7  64.8 1020.6  8.8  1.006 -99.9 -99.99 -9.99
2019/12/05 16:48 EST    3.79   4.22    8   55    9  59.5  64.8 1020.6  8.9  1.006 -99.9 -99.99 -9.99
2019/12/05 16:54 EST    3.73   4.17    7   53    8  59.5  64.8 1020.7  8.9  1.006 -99.9 -99.99 -9.99
2019/12/05 17:00 EST    3.66   4.11    6   64    8  59.7  64.8 1020.8  9.0  1.006 -99.9 -99.99 -9.99
2019/12/05 17:06 EST    3.59   4.07    6   57    8  59.7  64.8 1020.8  9.0  1.006 -99.9 -99.99 -9.99
2019/12/05 17:12 EST    3.52   4.01    6   60    8  59.5  64.8 1020.9  8.9  1.006 -99.9 -99.99 -9.99
2019/12/05 17:18 EST    3.44   3.94    6   60    7  59.7  64.8 1020.9  8.9  1.006 -99.9 -99.99 -9.99
2019/12/05 17:24 EST    3.36   3.85    5   55    7  59.5  64.6 1021.0  8.9  1.006 -99.9 -99.99 -9.99
2019/12/05 17:30 EST    3.28   3.76    5   55    6  59.5  64.6 1021.0  8.9  1.006 -99.9 -99.99 -9.99
2019/12/05 17:36 EST    3.19   3.68    6   48    6  59.4  64.6 1021.0  8.9  1.006 -99.9 -99.99 -9.99
2019/12/05 17:42 EST    3.10   3.60    6   52    6  59.4  64.6 1021.1  8.9  1.006 -99.9 -99.99 -9.99
2019/12/05 17:48 EST    3.01   3.51    5   53    6  59.5  64.6 1021.1  8.9  1.006 -99.9 -99.99 -9.99
2019/12/05 17:54 EST    2.92   3.43    5   57    6  59.5  64.6 1021.2  8.9  1.006 -99.9 -99.99 -9.99
2019/12/05 18:00 EST    2.83   3.35    5   49    7  59.4  64.8 1021.3  8.9  1.006 -99.9 -99.99 -9.99
2019/12/05 18:06 EST    2.74   3.24    6   53    6  59.4  64.8 1021.3  8.9  1.006 -99.9 -99.99 -9.99
2019/12/05 18:12 EST    2.64   3.15    6   58    7  59.7  65.1 1021.4  9.0  1.006 -99.9 -99.99 -9.99
2019/12/05 18:18 EST    2.55   3.05    6   50    7  59.4  64.9 1021.5  9.0  1.006 -99.9 -99.99 -9.99
2019/12/05 18:24 EST    2.46   2.97    7   52    8  59.5  64.9 1021.6  8.9  1.006 -99.9 -99.99 -9.99
2019/12/05 18:30 EST    2.36   2.90    7   54    8  59.5  64.9 1021.6  9.0  1.006 -99.9 -99.99 -9.99
2019/12/05 18:36 EST    2.27   2.81    7   53    8  59.7  64.2 1021.7  8.8  1.006 -99.9 -99.99 -9.99
2019/12/05 18:42 EST    2.18   2.69    6   54    8  59.7  64.4 1021.8  8.8  1.006 -99.9 -99.99 -9.99
2019/12/05 18:48 EST    2.09   2.58    5   60    7  59.7  64.0 1021.9  8.7  1.006 -99.9 -99.99 -9.99
2019/12/05 18:54 EST    2.01   2.48    5   67    7  59.5  63.9 1022.0  8.6  1.006 -99.9 -99.99 -9.99
2019/12/05 19:00 EST    1.92   2.42    6   58    7  59.9  63.7 1022.0  8.6  1.006 -99.9 -99.99 -9.99
2019/12/05 19:06 EST    1.84   2.33    6   54    7  59.7  63.9 1022.0  8.5  1.006 -99.9 -99.99 -9.99
2019/12/05 19:12 EST    1.76   2.25    6   57    6  59.9  63.7 1022.0  8.5  1.006 -99.9 -99.99 -9.99
2019/12/05 19:18 EST    1.68   2.18    6   54    8  59.9  63.7 1022.0  8.4  1.006 -99.9 -99.99 -9.99
2019/12/05 19:24 EST    1.61   2.06    6   57    8  59.7  63.7 1022.1  8.4  1.006 -99.9 -99.99 -9.99
2019/12/05 19:30 EST    1.54   1.94    6   59    7  59.9  63.5 1022.1  8.2  1.006 -99.9 -99.99 -9.99
2019/12/05 19:36 EST    1.47   1.83    6   48    7  59.7  63.5 1022.1  8.2  1.006 -99.9 -99.99 -9.99
2019/12/05 19:42 EST    1.40   1.75    6   53    7  59.9  63.3 1022.1  8.1  1.006 -99.9 -99.99 -9.99
2019/12/05 19:48 EST    1.34   1.68    6   58    8  60.1  63.1 1022.1  8.0  1.006 -99.9 -99.99 -9.99
2019/12/05 19:54 EST    1.28   1.55    7   57    8  60.1  63.1 1022.1  8.0  1.006 -99.9 -99.99 -9.99
2019/12/05 20:00 EST    1.22   1.55    7   58    8  60.3  63.1 1022.0  7.9  1.006 -99.9 -99.99 -9.99
2019/12/05 20:06 EST    1.16   1.47    8   61    8  60.3  63.0 1022.1  7.8  1.006 -99.9 -99.99 -9.99
2019/12/05 20:12 EST    1.11   1.38    6   60    8  60.3  63.0 1022.0  7.8  1.006 -99.9 -99.99 -9.99
2019/12/05 20:18 EST    1.06   1.31    6   62    8  60.3  63.0 1022.1  7.7  1.006 -99.9 -99.99 -9.99
2019/12/05 20:24 EST    1.01   1.25    7   61    9  60.4  62.8 1022.0  7.6  1.005 -99.9 -99.99 -9.99
2019/12/05 20:30 EST    0.97   1.21    7   67    9  60.1  62.8 1022.0  7.6  1.005 -99.9 -99.99 -9.99
2019/12/05 20:36 EST    0.93   1.14    5   72    8  59.9  62.8 1022.1  7.6  1.005 -99.9 -99.99 -9.99
2019/12/05 20:42 EST    0.89   1.08    5   70    7  59.7  63.0 1022.2  7.5  1.005 -99.9 -99.99 -9.99
2019/12/05 20:48 EST    0.86   1.04    5   73    6  59.7  62.8 1022.2  7.5  1.005 -99.9 -99.99 -9.99
2019/12/05 20:54 EST    0.83   1.01    4   73    6  59.5  62.8 1022.3  7.5  1.005 -99.9 -99.99 -9.99
2019/12/05 21:00 EST    0.80   1.00    4   74    5  59.7  62.8 1022.4  7.5  1.005 -99.9 -99.99 -9.99
2019/12/05 21:06 EST    0.78   1.01    4   77    6  59.5  62.8 1022.4  7.4  1.005 -99.9 -99.99 -9.99
2019/12/05 21:12 EST    0.77   0.98    6   77    7  59.9  62.8 1022.4  7.4  1.005 -99.9 -99.99 -9.99
2019/12/05 21:18 EST    0.75   0.95    6   71    8  60.1  62.8 1022.4  7.4  1.005 -99.9 -99.99 -9.99
2019/12/05 21:24 EST    0.75   0.94    5   71    7  59.9  62.8 1022.5  7.4  1.005 -99.9 -99.99 -9.99
2019/12/05 21:30 EST    0.74   0.97    5   77    6  59.7  62.8 1022.5  7.3  1.005 -99.9 -99.99 -9.99
2019/12/05 21:36 EST    0.75   1.00    4   78    6  59.7  62.6 1022.6  7.3  1.005 -99.9 -99.99 -9.99
2019/12/05 21:42 EST    0.75   1.01    4   76    5  59.9  62.6 1022.6  7.3  1.005 -99.9 -99.99 -9.99
2019/12/05 21:48 EST    0.77   1.04    5   71    6  59.9  62.6 1022.6  7.2  1.005 -99.9 -99.99 -9.99
2019/12/05 21:54 EST    0.79   1.06    4   76    6  59.9  62.6 1022.6  7.2  1.005 -99.9 -99.99 -9.99
2019/12/05 22:00 EST    0.81   1.11    3   79    5  59.9  62.6 1022.6  7.2  1.005 -99.9 -99.99 -9.99
2019/12/05 22:06 EST    0.84   1.15    4   79    5  60.1  62.6 1022.6  7.1  1.005 -99.9 -99.99 -9.99
2019/12/05 22:12 EST    0.87   1.16    3   76    5  60.1  62.4 1022.6  7.1  1.005 -99.9 -99.99 -9.99
2019/12/05 22:18 EST    0.91   1.27    3   78    4  60.1  62.6 1022.7  7.1  1.005 -99.9 -99.99 -9.99
2019/12/05 22:24 EST    0.96   1.32    2   72    4  59.9  62.4 1022.7  7.0  1.005 -99.9 -99.99 -9.99
2019/12/05 22:30 EST    1.00   1.37    1   58    3  59.2  62.4 1022.8  7.0  1.005 -99.9 -99.99 -9.99
2019/12/05 22:36 EST    1.06   1.40    1  244    3  57.7  62.4 1022.8  7.0  1.005 -99.9 -99.99 -9.99
2019/12/05 22:42 EST    1.11   1.44    1  285    2  56.7  62.4 1022.8  7.0  1.005 -99.9 -99.99 -9.99
2019/12/05 22:48 EST    1.17   1.51    1  304    3  56.1  62.2 1022.8  6.9  1.005 -99.9 -99.99 -9.99
2019/12/05 22:54 EST    1.24   1.56    2  282    2  55.4  62.2 1022.8  6.9  1.005 -99.9 -99.99 -9.99
2019/12/05 23:00 EST    1.31   1.61    1  274    2  54.9  62.2 1022.7  6.9  1.005 -99.9 -99.99 -9.99
2019/12/05 23:06 EST    1.38   1.70    1  265    2  54.7  62.2 1022.6  6.9  1.005 -99.9 -99.99 -9.99
2019/12/05 23:12 EST    1.45   1.80    3  250    3  54.3  62.2 1022.7  6.8  1.005 -99.9 -99.99 -9.99
2019/12/05 23:18 EST    1.53   1.87    3  274    3  53.6  62.1 1022.7  6.8  1.005 -99.9 -99.99 -9.99
2019/12/05 23:24 EST    1.60   1.94    2  278    3  53.8  62.1 1022.8  6.8  1.005 -99.9 -99.99 -9.99
2019/12/05 23:30 EST    1.68   2.01    2  281    3  53.8  62.2 1022.8  6.8  1.005 -99.9 -99.99 -9.99
2019/12/05 23:36 EST    1.76   2.08    2  281    3  53.8  62.1 1022.9  6.7  1.005 -99.9 -99.99 -9.99
2019/12/05 23:42 EST    1.85   2.17    2  313    3  53.6  62.2 1022.8  6.7  1.005 -99.9 -99.99 -9.99
2019/12/05 23:48 EST    1.93   2.23    2  313    3  53.6  62.2 1022.8  6.7  1.005 -99.9 -99.99 -9.99
2019/12/05 23:54 EST    2.01   2.28    3  299    3  53.8  62.2 1022.9  6.7  1.005 -99.9 -99.99 -9.99
2019/12/06 00:00 EST    2.10   2.33    3  289    4  53.2  62.2 1022.8  6.7  1.005 -99.9 -99.99 -9.99
2019/12/06 00:06 EST    2.18   2.42    2  281    3  53.1  62.4 1022.8  6.7  1.005 -99.9 -99.99 -9.99
2019/12/06 00:12 EST    2.27   2.53    2  276    2  52.9  62.4 1022.9  6.7  1.005 -99.9 -99.99 -9.99
2019/12/06 00:18 EST    2.35   2.63    2  274    2  52.9  62.2 1022.9  6.7  1.005 -99.9 -99.99 -9.99
2019/12/06 00:24 EST    2.43   2.68    2  293    3  52.5  62.2 1022.9  6.7  1.005 -99.9 -99.99 -9.99
2019/12/06 00:30 EST    2.52   2.81    2  285    3  52.7  62.1 1022.9  6.6  1.005 -99.9 -99.99 -9.99
2019/12/06 00:36 EST    2.60   2.85    2  303    3  52.7  62.1 1022.8  6.6  1.005 -99.9 -99.99 -9.99
2019/12/06 00:42 EST    2.68   3.00    3  298    4  52.7  62.1 1022.8  6.6  1.005 -99.9 -99.99 -9.99
2019/12/06 00:48 EST    2.76   3.09    3  298    4  52.5  62.1 1022.8  6.5  1.005 -99.9 -99.99 -9.99
2019/12/06 00:54 EST    2.84   3.13    3  288    4  52.7  62.2 1022.9  6.6  1.005 -99.9 -99.99 -9.99
2019/12/06 01:00 EST    2.92   3.26    3  282    3  52.3  62.1 1022.9  6.6  1.005 -99.9 -99.99 -9.99
2019/12/06 01:06 EST    3.00   3.30    2  282    3  52.5  61.9 1022.9  6.5  1.005 -99.9 -99.99 -9.99
2019/12/06 01:12 EST    3.07   3.37    3  285    3  52.3  61.9 1022.8  6.5  1.005 -99.9 -99.99 -9.99
2019/12/06 01:18 EST    3.15   3.46    2  304    4  52.7  61.9 1022.9  6.5  1.005 -99.9 -99.99 -9.99
2019/12/06 01:24 EST    3.22   3.54    2  278    3  52.7  61.9 1022.8  6.5  1.005 -99.9 -99.99 -9.99
2019/12/06 01:30 EST    3.29   3.61    3  279    3  52.7  61.9 1022.9  6.5  1.005 -99.9 -99.99 -9.99
2019/12/06 01:36 EST    3.36   3.68    2  282    3  52.7  61.9 1022.9  6.5  1.005 -99.9 -99.99 -9.99
2019/12/06 01:42 EST    3.42   3.71    3  278    4  52.5  61.9 1022.9  6.5  1.005 -99.9 -99.99 -9.99
2019/12/06 01:48 EST    3.49   3.81    3  281    4  52.2  62.1 1022.9  6.5  1.005 -99.9 -99.99 -9.99
2019/12/06 01:54 EST    3.55   3.89    3  269    3  52.3  62.1 1022.9  6.5  1.005 -99.9 -99.99 -9.99
2019/12/06 02:00 EST    3.61   3.98    3  280    4  52.2  62.2 1023.0  6.5  1.005 -99.9 -99.99 -9.99
2019/12/06 02:06 EST    3.67   4.05    2  282    3  52.5  62.2 1022.9  6.5  1.005 -99.9 -99.99 -9.99
2019/12/06 02:12 EST    3.72   4.07    2  288    3  52.5  62.1 1022.8  6.5  1.005 -99.9 -99.99 -9.99
2019/12/06 02:18 EST    3.78   4.15    2  296    2  52.5  62.4 1022.8  6.6  1.005 -99.9 -99.99 -9.99
2019/12/06 02:24 EST    3.83   4.17    2  286    3  52.3  62.2 1022.8  6.6  1.005 -99.9 -99.99 -9.99
2019/12/06 02:30 EST    3.87   4.29    2  269    3  52.5  63.0 1022.7  6.7  1.005 -99.9 -99.99 -9.99
2019/12/06 02:36 EST    3.92   4.31    2  280    3  52.5  62.2 1022.6  6.7  1.005 -99.9 -99.99 -9.99
2019/12/06 02:42 EST    3.96   4.32    3  273    4  52.0  63.1 1022.6  6.8  1.005 -99.9 -99.99 -9.99
2019/12/06 02:48 EST    4.00   4.38    3  275    4  52.3  63.3 1022.6  7.0  1.005 -99.9 -99.99 -9.99
2019/12/06 02:54 EST    4.03   4.45    3  278    4  52.2  63.5 1022.5  7.2  1.005 -99.9 -99.99 -9.99
2019/12/06 03:00 EST    4.07   4.49    3  274    4  52.5  63.5 1022.5  7.4  1.005 -99.9 -99.99 -9.99
2019/12/06 03:06 EST    4.10   4.54    2  278    4  52.5  63.7 1022.4  7.5  1.005 -99.9 -99.99 -9.99
2019/12/06 03:12 EST    4.12   4.55    2  294    3  52.5  64.0 1022.3  7.6  1.005 -99.9 -99.99 -9.99
2019/12/06 03:18 EST    4.14   4.54    3  294    3  52.3  64.0 1022.3  7.8  1.005 -99.9 -99.99 -9.99
2019/12/06 03:24 EST    4.16   4.64    4  295    4  52.0  64.2 1022.3  7.9  1.006 -99.9 -99.99 -9.99
2019/12/06 03:30 EST    4.18   4.67    3  285    4  52.3  64.8 1022.3  8.1  1.006 -99.9 -99.99 -9.99
2019/12/06 03:36 EST    4.19   4.71    3  295    5  52.2  64.2 1022.4  8.2  1.006 -99.9 -99.99 -9.99
2019/12/06 03:42 EST    4.20   4.77    2  304    3  52.0  64.0 1022.3  8.2  1.006 -99.9 -99.99 -9.99
2019/12/06 03:48 EST    4.21   4.72    3  293    3  52.0  64.2 1022.3  8.2  1.006 -99.9 -99.99 -9.99
2019/12/06 03:54 EST    4.21   4.75    2  245    4  52.3  64.8 1022.3  8.4  1.006 -99.9 -99.99 -9.99
2019/12/06 04:00 EST    4.21   4.74    2  271    4  52.2  64.8 1022.3  8.5  1.006 -99.9 -99.99 -9.99
2019/12/06 04:06 EST    4.21   4.72    4  274    4  52.0  64.8 1022.2  8.5  1.006 -99.9 -99.99 -9.99
2019/12/06 04:12 EST    4.20   4.72    4  284    5  52.0  64.6 1022.3  8.6  1.006 -99.9 -99.99 -9.99
2019/12/06 04:18 EST    4.18   4.74    4  287    4  52.3  64.4 1022.2  8.6  1.006 -99.9 -99.99 -9.99
2019/12/06 04:24 EST    4.17   4.75    4  307    4  52.0  64.4 1022.1  8.6  1.006 -99.9 -99.99 -9.99
2019/12/06 04:30 EST    4.15   4.73    4  297    5  52.0  64.6 1022.1  8.6  1.006 -99.9 -99.99 -9.99
2019/12/06 04:36 EST    4.12   4.68    3  291    5  52.2  64.6 1022.1  8.7  1.006 -99.9 -99.99 -9.99
2019/12/06 04:42 EST    4.09   4.64    3  294    3  52.2  64.6 1022.2  8.7  1.006 -99.9 -99.99 -9.99
2019/12/06 04:48 EST    4.05   4.63    4  300    4  52.2  64.6 1022.2  8.8  1.006 -99.9 -99.99 -9.99
2019/12/06 04:54 EST    4.02   4.59 -999 -999 -999 -99.9 -99.9 -999.9 -9.9 -9.999 -99.9 -99.99 -9.99
2019/12/06 05:00 EST    3.97   4.57    3  310    4  51.8  64.9 1022.2  8.8  1.006 -99.9 -99.99 -9.99
2019/12/06 05:06 EST    3.92 -99.99 -999 -999 -999 -99.9 -99.9 -999.9 -9.9 -9.999 -99.9 -99.99 -9.99
2019/12/06 05:12 EST    3.87 -99.99 -999 -999 -999 -99.9 -99.9 -999.9 -9.9 -9.999 -99.9 -99.99 -9.99
2019/12/06 05:18 EST    3.82 -99.99 -999 -999 -999 -99.9 -99.9 -999.9 -9.9 -9.999 -99.9 -99.99 -9.99
2019/12/06 05:24 EST    3.76 -99.99 -999 -999 -999 -99.9 -99.9 -999.9 -9.9 -9.999 -99.9 -99.99 -9.99
2019/12/06 05:30 EST    3.69 -99.99 -999 -999 -999 -99.9 -99.9 -999.9 -9.9 -9.999 -99.9 -99.99 -9.99
2019/12/06 05:36 EST    3.62 -99.99 -999 -999 -999 -99.9 -99.9 -999.9 -9.9 -9.999 -99.9 -99.99 -9.99
2019/12/06 05:42 EST    3.55 -99.99 -999 -999 -999 -99.9 -99.9 -999.9 -9.9 -9.999 -99.9 -99.99 -9.99
2019/12/06 05:48 EST    3.48 -99.99 -999 -999 -999 -99.9 -99.9 -999.9 -9.9 -9.999 -99.9 -99.99 -9.99
2019/12/06 05:54 EST    3.40 -99.99 -999 -999 -999 -99.9 -99.9 -999.9 -9.9 -9.999 -99.9 -99.99 -9.99
2019/12/06 06:00 EST    3.32 -99.99 -999 -999 -999 -99.9 -99.9 -999.9 -9.9 -9.999 -99.9 -99.99 -9.99
2019/12/06 06:06 EST    3.24 -99.99 -999 -999 -999 -99.9 -99.9 -999.9 -9.9 -9.999 -99.9 -99.99 -9.99
2019/12/06 06:12 EST    3.15 -99.99 -999 -999 -999 -99.9 -99.9 -999.9 -9.9 -9.999 -99.9 -99.99 -9.99
2019/12/06 06:18 EST    3.07 -99.99 -999 -999 -999 -99.9 -99.9 -999.9 -9.9 -9.999 -99.9 -99.99 -9.99
2019/12/06 06:24 EST    2.98 -99.99 -999 -999 -999 -99.9 -99.9 -999.9 -9.9 -9.999 -99.9 -99.99 -9.99
2019/12/06 06:30 EST    2.89 -99.99 -999 -999 -999 -99.9 -99.9 -999.9 -9.9 -9.999 -99.9 -99.99 -9.99
2019/12/06 06:36 EST    2.81 -99.99 -999 -999 -999 -99.9 -99.9 -999.9 -9.9 -9.999 -99.9 -99.99 -9.99
2019/12/06 06:42 EST    2.72 -99.99 -999 -999 -999 -99.9 -99.9 -999.9 -9.9 -9.999 -99.9 -99.99 -9.99
2019/12/06 06:48 EST    2.63 -99.99 -999 -999 -999 -99.9 -99.9 -999.9 -9.9 -9.999 -99.9 -99.99 -9.99
2019/12/06 06:54 EST    2.55 -99.99 -999 -999 -999 -99.9 -99.9 -999.9 -9.9 -9.999 -99.9 -99.99 -9.99
2019/12/06 07:00 EST    2.46 -99.99 -999 -999 -999 -99.9 -99.9 -999.9 -9.9 -9.999 -99.9 -99.99 -9.99
2019/12/06 07:06 EST    2.38 -99.99 -999 -999 -999 -99.9 -99.9 -999.9 -9.9 -9.999 -99.9 -99.99 -9.99
2019/12/06 07:12 EST    2.30 -99.99 -999 -999 -999 -99.9 -99.9 -999.9 -9.9 -9.999 -99.9 -99.99 -9.99
2019/12/06 07:18 EST    2.22 -99.99 -999 -999 -999 -99.9 -99.9 -999.9 -9.9 -9.999 -99.9 -99.99 -9.99
2019/12/06 07:24 EST    2.14 -99.99 -999 -999 -999 -99.9 -99.9 -999.9 -9.9 -9.999 -99.9 -99.99 -9.99
2019/12/06 07:30 EST    2.06 -99.99 -999 -999 -999 -99.9 -99.9 -999.9 -9.9 -9.999 -99.9 -99.99 -9.99
2019/12/06 07:36 EST    1.99 -99.99 -999 -999 -999 -99.9 -99.9 -999.9 -9.9 -9.999 -99.9 -99.99 -9.99
2019/12/06 07:42 EST    1.92 -99.99 -999 -999 -999 -99.9 -99.9 -999.9 -9.9 -9.999 -99.9 -99.99 -9.99
2019/12/06 07:48 EST    1.85 -99.99 -999 -999 -999 -99.9 -99.9 -999.9 -9.9 -9.999 -99.9 -99.99 -9.99
2019/12/06 07:54 EST    1.78 -99.99 -999 -999 -999 -99.9 -99.9 -999.9 -9.9 -9.999 -99.9 -99.99 -9.99
2019/12/06 08:00 EST    1.72 -99.99 -999 -999 -999 -99.9 -99.9 -999.9 -9.9 -9.999 -99.9 -99.99 -9.99
2019/12/06 08:06 EST    1.66 -99.99 -999 -999 -999 -99.9 -99.9 -999.9 -9.9 -9.999 -99.9 -99.99 -9.99
2019/12/06 08:12 EST    1.60 -99.99 -999 -999 -999 -99.9 -99.9 -999.9 -9.9 -9.999 -99.9 -99.99 -9.99
2019/12/06 08:18 EST    1.54 -99.99 -999 -999 -999 -99.9 -99.9 -999.9 -9.9 -9.999 -99.9 -99.99 -9.99
2019/12/06 08:24 EST    1.49 -99.99 -999 -999 -999 -99.9 -99.9 -999.9 -9.9 -9.999 -99.9 -99.99 -9.99
2019/12/06 08:30 EST    1.44 -99.99 -999 -999 -999 -99.9 -99.9 -999.9 -9.9 -9.999 -99.9 -99.99 -9.99
2019/12/06 08:36 EST    1.39 -99.99 -999 -999 -999 -99.9 -99.9 -999.9 -9.9 -9.999 -99.9 -99.99 -9.99
2019/12/06 08:42 EST    1.34 -99.99 -999 -999 -999 -99.9 -99.9 -999.9 -9.9 -9.999 -99.9 -99.99 -9.99
2019/12/06 08:48 EST    1.30 -99.99 -999 -999 -999 -99.9 -99.9 -999.9 -9.9 -9.999 -99.9 -99.99 -9.99
2019/12/06 08:54 EST    1.26 -99.99 -999 -999 -999 -99.9 -99.9 -999.9 -9.9 -9.999 -99.9 -99.99 -9.99
2019/12/06 09:00 EST    1.22 -99.99 -999 -999 -999 -99.9 -99.9 -999.9 -9.9 -9.999 -99.9 -99.99 -9.99
2019/12/06 09:06 EST    1.19 -99.99 -999 -999 -999 -99.9 -99.9 -999.9 -9.9 -9.999 -99.9 -99.99 -9.99
2019/12/06 09:12 EST    1.16 -99.99 -999 -999 -999 -99.9 -99.9 -999.9 -9.9 -9.999 -99.9 -99.99 -9.99
2019/12/06 09:18 EST    1.13 -99.99 -999 -999 -999 -99.9 -99.9 -999.9 -9.9 -9.999 -99.9 -99.99 -9.99
2019/12/06 09:24 EST    1.10 -99.99 -999 -999 -999 -99.9 -99.9 -999.9 -9.9 -9.999 -99.9 -99.99 -9.99
2019/12/06 09:30 EST    1.08 -99.99 -999 -999 -999 -99.9 -99.9 -999.9 -9.9 -9.999 -99.9 -99.99 -9.99
2019/12/06 09:36 EST    1.07 -99.99 -999 -999 -999 -99.9 -99.9 -999.9 -9.9 -9.999 -99.9 -99.99 -9.99
2019/12/06 09:42 EST    1.06 -99.99 -999 -999 -999 -99.9 -99.9 -999.9 -9.9 -9.999 -99.9 -99.99 -9.99
2019/12/06 09:48 EST    1.05 -99.99 -999 -999 -999 -99.9 -99.9 -999.9 -9.9 -9.999 -99.9 -99.99 -9.99
2019/12/06 09:54 EST    1.04 -99.99 -999 -999 -999 -99.9 -99.9 -999.9 -9.9 -9.999 -99.9 -99.99 -9.99
2019/12/06 10:00 EST    1.04 -99.99 -999 -999 -999 -99.9 -99.9 -999.9 -9.9 -9.999 -99.9 -99.99 -9.99
2019/12/06 10:06 EST    1.05 -99.99 -999 -999 -999 -99.9 -99.9 -999.9 -9.9 -9.999 -99.9 -99.99 -9.99
2019/12/06 10:12 EST    1.06 -99.99 -999 -999 -999 -99.9 -99.9 -999.9 -9.9 -9.999 -99.9 -99.99 -9.99
2019/12/06 10:18 EST    1.07 -99.99 -999 -999 -999 -99.9 -99.9 -999.9 -9.9 -9.999 -99.9 -99.99 -9.99
2019/12/06 10:24 EST    1.09 -99.99 -999 -999 -999 -99.9 -99.9 -999.9 -9.9 -9.999 -99.9 -99.99 -9.99
2019/12/06 10:30 EST    1.12 -99.99 -999 -999 -999 -99.9 -99.9 -999.9 -9.9 -9.999 -99.9 -99.99 -9.99
2019/12/06 10:36 EST    1.15 -99.99 -999 -999 -999 -99.9 -99.9 -999.9 -9.9 -9.999 -99.9 -99.99 -9.99
2019/12/06 10:42 EST    1.18 -99.99 -999 -999 -999 -99.9 -99.9 -999.9 -9.9 -9.999 -99.9 -99.99 -9.99
2019/12/06 10:48 EST    1.22 -99.99 -999 -999 -999 -99.9 -99.9 -999.9 -9.9 -9.999 -99.9 -99.99 -9.99
2019/12/06 10:54 EST    1.26 -99.99 -999 -999 -999 -99.9 -99.9 -999.9 -9.9 -9.999 -99.9 -99.99 -9.99
2019/12/06 11:00 EST    1.31 -99.99 -999 -999 -999 -99.9 -99.9 -999.9 -9.9 -9.999 -99.9 -99.99 -9.99
2019/12/06 11:06 EST    1.36 -99.99 -999 -999 -999 -99.9 -99.9 -999.9 -9.9 -9.999 -99.9 -99.99 -9.99